Terminal Aerodrome Forecast
Issued by NWS

Home | Current Version | Previous Version | Text Only | Print | Product List | Glossary On
Versions: 1 2 3 4 5 6 7 8 9 10 11 12 13 14 15 16
000
FTUS45 KABQ 271700 RRA
TAFSAF
TAF
KSAF 271741Z 2718/2818 25009KT P6SM SCT080 BKN120
     FM272200 25010G18KT P6SM VCTS SCT050CB BKN080
      TEMPO 2722/2801 VRB15G25KT -SHRA BKN050
     FM280100 33006KT P6SM VCSH BKN070
     FM280300 36005KT P6SM SKC=

USA.gov is the U.S. government's official web portal to all federal, state and local government web resources and services.